Time,TemperatureF,DewpointF,PressureIn,WindDirection,WindDirectionDegrees,WindSpeedMPH,WindSpeedGustMPH,Humidity,HourlyPrecipIn,Conditions,Clouds,dailyrainin,SoftwareType,DateUTC
2013-09-05 00:03:00,67.0,65.0,-100.00,East,90,0.0,0.0,92,0.00,,,-99.99,,2013-09-05 05:03:00,
2013-09-05 00:10:00,66.0,64.0,-100.00,ENE,75,0.0,0.0,92,0.00,,,-99.99,,2013-09-05 05:10:00,
2013-09-05 00:43:00,66.0,64.0,-100.00,ENE,75,0.0,0.0,92,0.00,,,-99.99,,2013-09-05 05:43:00,
2013-09-05 00:52:00,66.0,64.0,-100.00,ENE,75,0.0,0.0,92,0.00,,,-99.99,,2013-09-05 05:52:00,
2013-09-05 01:02:00,66.0,64.0,-100.00,ENE,75,0.0,0.0,92,0.00,,,-99.99,,2013-09-05 06:02:00,
2013-09-05 01:11:00,64.0,62.0,-100.00,East,95,0.0,0.0,93,0.00,,,-99.99,,2013-09-05 06:11:00,
2013-09-05 01:42:00,64.0,62.0,-100.00,East,95,0.0,0.0,93,0.00,,,-99.99,,2013-09-05 06:42:00,
2013-09-05 01:52:00,64.0,62.0,-100.00,East,95,0.0,0.0,93,0.00,,,-99.99,,2013-09-05 06:52:00,
2013-09-05 02:01:00,64.0,62.0,-100.00,East,95,0.0,0.0,93,0.00,,,-99.99,,2013-09-05 07:01:00,
2013-09-05 02:11:00,64.0,63.0,-100.00,East,95,0.0,0.0,97,0.00,,,-99.99,,2013-09-05 07:11:00,
2013-09-05 02:42:00,64.0,63.0,-100.00,East,95,0.0,0.0,97,0.00,,,-99.99,,2013-09-05 07:42:00,
2013-09-05 02:52:00,64.0,63.0,-100.00,East,95,0.0,0.0,97,0.00,,,-99.99,,2013-09-05 07:52:00,
2013-09-05 03:03:00,64.0,63.0,-100.00,East,95,0.0,0.0,97,0.00,,,-99.99,,2013-09-05 08:03:00,
2013-09-05 03:10:00,63.0,62.0,-100.00,East,90,0.0,0.0,97,0.00,,,-99.99,,2013-09-05 08:10:00,
2013-09-05 03:42:00,63.0,62.0,-100.00,East,90,0.0,0.0,97,0.00,,,-99.99,,2013-09-05 08:42:00,
2013-09-05 03:52:00,63.0,62.0,-100.00,East,90,0.0,0.0,97,0.00,,,-99.99,,2013-09-05 08:52:00,
2013-09-05 04:02:00,63.0,62.0,-100.00,East,90,0.0,0.0,97,0.00,,,-99.99,,2013-09-05 09:02:00,
2013-09-05 04:11:00,62.0,62.0,-100.00,ESE,110,0.0,0.0,97,0.00,,,-99.99,,2013-09-05 09:11:00,
2013-09-05 04:43:00,62.0,62.0,-100.00,ESE,110,0.0,0.0,97,0.00,,,-99.99,,2013-09-05 09:43:00,
2013-09-05 04:54:00,62.0,62.0,-100.00,ESE,110,0.0,0.0,97,0.00,,,-99.99,,2013-09-05 09:54:00,
2013-09-05 05:03:00,62.0,62.0,-100.00,ESE,110,0.0,0.0,97,0.00,,,-99.99,,2013-09-05 10:03:00,
2013-09-05 05:10:00,61.0,59.0,-100.00,ESE,105,0.0,0.0,93,0.00,,,-99.99,,2013-09-05 10:10:00,
2013-09-05 05:43:00,61.0,59.0,-100.00,ESE,105,0.0,0.0,93,0.00,,,-99.99,,2013-09-05 10:43:00,
2013-09-05 05:53:00,61.0,59.0,-100.00,ESE,105,0.0,0.0,93,0.00,,,-99.99,,2013-09-05 10:53:00,
2013-09-05 06:03:00,61.0,59.0,-100.00,ESE,105,0.0,0.0,93,0.00,,,-99.99,,2013-09-05 11:03:00,
2013-09-05 06:10:00,61.0,61.0,-100.00,ESE,105,0.0,0.0,98,0.00,,,-99.99,,2013-09-05 11:10:00,
2013-09-05 06:43:00,61.0,61.0,-100.00,ESE,105,0.0,0.0,98,0.00,,,-99.99,,2013-09-05 11:43:00,
2013-09-05 06:52:00,61.0,61.0,-100.00,ESE,105,0.0,0.0,98,0.00,,,-99.99,,2013-09-05 11:52:00,
2013-09-05 07:01:00,61.0,61.0,-100.00,ESE,105,0.0,0.0,98,0.00,,,-99.99,,2013-09-05 12:01:00,
2013-09-05 07:42:00,61.0,60.0,-100.00,ESE,110,0.0,0.0,95,0.00,,,-99.99,,2013-09-05 12:42:00,
2013-09-05 07:52:00,61.0,60.0,-100.00,ESE,110,0.0,0.0,95,0.00,,,-99.99,,2013-09-05 12:52:00,
2013-09-05 08:01:00,61.0,60.0,-100.00,ESE,110,0.0,0.0,95,0.00,,,-99.99,,2013-09-05 13:01:00,
2013-09-05 08:10:00,61.0,60.0,-100.00,ESE,110,0.0,0.0,95,0.00,,,-99.99,,2013-09-05 13:10:00,
2013-09-05 08:42:00,61.0,60.0,-100.00,ESE,110,0.0,0.0,95,0.00,,,-99.99,,2013-09-05 13:42:00,
2013-09-05 08:53:00,61.0,60.0,-100.00,ESE,110,0.0,0.0,95,0.00,,,-99.99,,2013-09-05 13:53:00,
2013-09-05 09:02:00,61.0,60.0,-100.00,ESE,110,0.0,0.0,95,0.00,,,-99.99,,2013-09-05 14:02:00,
2013-09-05 09:10:00,61.0,58.0,-100.00,ESE,110,0.0,0.0,92,0.00,,,-99.99,,2013-09-05 14:10:00,
2013-09-05 09:42:00,61.0,58.0,-100.00,ESE,110,0.0,0.0,92,0.00,,,-99.99,,2013-09-05 14:42:00,
2013-09-05 09:52:00,61.0,58.0,-100.00,ESE,110,0.0,0.0,92,0.00,,,-99.99,,2013-09-05 14:52:00,
2013-09-05 10:02:00,61.0,58.0,-100.00,ESE,110,0.0,0.0,92,0.00,,,-99.99,,2013-09-05 15:02:00,
2013-09-05 10:11:00,62.0,58.0,-100.00,SE,145,0.0,0.0,85,0.00,,,-99.99,,2013-09-05 15:11:00,
2013-09-05 10:44:00,62.0,58.0,-100.00,SE,145,0.0,0.0,85,0.00,,,-99.99,,2013-09-05 15:44:00,
2013-09-05 10:54:00,62.0,58.0,-100.00,SE,145,0.0,0.0,85,0.00,,,-99.99,,2013-09-05 15:54:00,
2013-09-05 11:03:00,62.0,58.0,-100.00,SE,145,0.0,0.0,85,0.00,,,-99.99,,2013-09-05 16:03:00,
2013-09-05 11:11:00,68.0,57.0,-100.00,ESE,115,0.0,0.0,68,0.00,,,-99.99,,2013-09-05 16:11:00,
2013-09-05 11:43:00,68.0,57.0,-100.00,ESE,115,0.0,0.0,68,0.00,,,-99.99,,2013-09-05 16:43:00,
2013-09-05 11:54:00,68.0,57.0,-100.00,ESE,115,0.0,0.0,68,0.00,,,-99.99,,2013-09-05 16:54:00,
2013-09-05 12:03:00,68.0,57.0,-100.00,ESE,115,0.0,0.0,68,0.00,,,-99.99,,2013-09-05 17:03:00,
2013-09-05 12:43:00,71.0,56.0,-100.00,SE,140,0.0,0.0,60,0.00,,,-99.99,,2013-09-05 17:43:00,
2013-09-05 12:52:00,71.0,56.0,-100.00,SE,140,0.0,0.0,60,0.00,,,-99.99,,2013-09-05 17:52:00,
2013-09-05 13:02:00,71.0,56.0,-100.00,SE,140,0.0,0.0,60,0.00,,,-99.99,,2013-09-05 18:02:00,
2013-09-05 13:11:00,74.0,56.0,-100.00,ESE,120,0.0,0.0,55,0.00,,,-99.99,,2013-09-05 18:11:00,
2013-09-05 13:43:00,74.0,56.0,-100.00,ESE,120,0.0,0.0,55,0.00,,,-99.99,,2013-09-05 18:43:00,
2013-09-05 13:52:00,74.0,56.0,-100.00,ESE,120,0.0,0.0,55,0.00,,,-99.99,,2013-09-05 18:52:00,
2013-09-05 14:02:00,74.0,56.0,-100.00,ESE,120,0.0,0.0,55,0.00,,,-99.99,,2013-09-05 19:02:00,
2013-09-05 14:42:00,76.0,56.0,-100.00,East,100,0.0,0.0,50,0.00,,,-99.99,,2013-09-05 19:42:00,
2013-09-05 14:52:00,76.0,56.0,-100.00,East,100,0.0,0.0,50,0.00,,,-99.99,,2013-09-05 19:52:00,
2013-09-05 15:03:00,76.0,56.0,-100.00,East,100,0.0,0.0,50,0.00,,,-99.99,,2013-09-05 20:03:00,
2013-09-05 15:10:00,77.0,57.0,-100.00,SSE,160,0.0,0.0,50,0.00,,,-99.99,,2013-09-05 20:10:00,
2013-09-05 15:43:00,77.0,57.0,-100.00,SSE,160,0.0,0.0,50,0.00,,,-99.99,,2013-09-05 20:43:00,
2013-09-05 15:52:00,77.0,57.0,-100.00,SSE,160,0.0,0.0,50,0.00,,,-99.99,,2013-09-05 20:52:00,
2013-09-05 16:02:00,77.0,57.0,-100.00,SSE,160,0.0,0.0,50,0.00,,,-99.99,,2013-09-05 21:02:00,
2013-09-05 16:44:00,78.0,56.0,-100.00,NNE,20,0.0,0.0,48,0.00,,,-99.99,,2013-09-05 21:44:00,
2013-09-05 16:54:00,78.0,56.0,-100.00,NNE,20,0.0,0.0,48,0.00,,,-99.99,,2013-09-05 21:54:00,
2013-09-05 17:04:00,78.0,56.0,-100.00,NNE,20,0.0,0.0,48,0.00,,,-99.99,,2013-09-05 22:04:00,
2013-09-05 17:10:00,76.0,55.0,-100.00,ESE,120,0.0,0.0,47,0.00,,,-99.99,,2013-09-05 22:10:00,
2013-09-05 17:43:00,76.0,55.0,-100.00,ESE,120,0.0,0.0,47,0.00,,,-99.99,,2013-09-05 22:43:00,
2013-09-05 17:53:00,76.0,55.0,-100.00,ESE,120,0.0,0.0,47,0.00,,,-99.99,,2013-09-05 22:53:00,
2013-09-05 18:02:00,76.0,55.0,-100.00,ESE,120,0.0,0.0,47,0.00,,,-99.99,,2013-09-05 23:02:00,
2013-09-05 18:10:00,74.0,58.0,-100.00,East,100,0.0,0.0,56,0.00,,,-99.99,,2013-09-05 23:10:00,
2013-09-05 18:42:00,74.0,58.0,-100.00,East,100,0.0,0.0,56,0.00,,,-99.99,,2013-09-05 23:42:00,
2013-09-05 18:53:00,74.0,58.0,-100.00,East,100,0.0,0.0,56,0.00,,,-99.99,,2013-09-05 23:53:00,
2013-09-05 19:02:00,74.0,58.0,-100.00,East,100,0.0,0.0,56,0.00,,,-99.99,,2013-09-06 00:02:00,
2013-09-05 19:11:00,70.0,59.0,-100.00,SSE,160,0.0,0.0,68,0.00,,,-99.99,,2013-09-06 00:11:00,
2013-09-05 19:52:00,70.0,59.0,-100.00,SSE,160,0.0,0.0,68,0.00,,,-99.99,,2013-09-06 00:52:00,
2013-09-05 20:02:00,70.0,59.0,-100.00,SSE,160,0.0,0.0,68,0.00,,,-99.99,,2013-09-06 01:02:00,
2013-09-05 20:10:00,67.0,61.0,-100.00,North,5,0.0,0.0,82,0.00,,,-99.99,,2013-09-06 01:10:00,
2013-09-05 20:42:00,67.0,61.0,-100.00,North,5,0.0,0.0,82,0.00,,,-99.99,,2013-09-06 01:42:00,
2013-09-05 20:52:00,67.0,61.0,-100.00,North,5,0.0,0.0,82,0.00,,,-99.99,,2013-09-06 01:52:00,
2013-09-05 21:02:00,67.0,61.0,-100.00,North,5,0.0,0.0,82,0.00,,,-99.99,,2013-09-06 02:02:00,
2013-09-05 21:10:00,67.0,61.0,-100.00,NW,325,0.0,0.0,83,0.00,,,-99.99,,2013-09-06 02:10:00,
2013-09-05 21:42:00,67.0,61.0,-100.00,NW,325,0.0,0.0,83,0.00,,,-99.99,,2013-09-06 02:42:00,
2013-09-05 21:52:00,67.0,61.0,-100.00,NW,325,0.0,0.0,83,0.00,,,-99.99,,2013-09-06 02:52:00,
2013-09-05 22:02:00,67.0,61.0,-100.00,NW,325,0.0,0.0,83,0.00,,,-99.99,,2013-09-06 03:02:00,
2013-09-05 22:10:00,68.0,62.0,-100.00,South,185,0.0,0.0,81,0.00,,,-99.99,,2013-09-06 03:10:00,
2013-09-05 22:44:00,68.0,62.0,-100.00,South,185,0.0,0.0,81,0.00,,,-99.99,,2013-09-06 03:44:00,
2013-09-05 22:55:00,68.0,62.0,-100.00,South,185,0.0,0.0,81,0.00,,,-99.99,,2013-09-06 03:55:00,
2013-09-05 23:04:00,68.0,62.0,-100.00,South,185,0.0,0.0,81,0.00,,,-99.99,,2013-09-06 04:04:00,
2013-09-05 23:44:00,67.0,61.0,-100.00,ESE,110,0.0,0.0,82,0.00,,,-99.99,,2013-09-06 04:44:00,
2013-09-05 23:54:00,67.0,61.0,-100.00,ESE,110,0.0,0.0,82,0.00,,,-99.99,,2013-09-06 04:54:00,